sensor_id;sensor_type;location;lat;lon;timestamp;pressure;altitude;pressure_sealevel;temperature;humidity
9822;BME280;4950;46.042;14.472;2023-09-08T00:00:58;98562.22;;;18.65;77.53
9822;BME280;4950;46.042;14.472;2023-09-08T00:03:25;98559.56;;;18.65;77.20
9822;BME280;4950;46.042;14.472;2023-09-08T00:05:51;98568.47;;;18.70;77.04
9822;BME280;4950;46.042;14.472;2023-09-08T00:08:18;98562.59;;;18.68;77.00
9822;BME280;4950;46.042;14.472;2023-09-08T00:10:45;98561.59;;;18.63;77.13
9822;BME280;4950;46.042;14.472;2023-09-08T00:13:12;98562.03;;;18.60;77.30
9822;BME280;4950;46.042;14.472;2023-09-08T00:15:40;98568.69;;;18.62;77.46
9822;BME280;4950;46.042;14.472;2023-09-08T00:18:07;98564.06;;;18.58;77.37
9822;BME280;4950;46.042;14.472;2023-09-08T00:20:34;98567.53;;;18.51;77.04
9822;BME280;4950;46.042;14.472;2023-09-08T00:23:01;98564.31;;;18.49;77.34
9822;BME280;4950;46.042;14.472;2023-09-08T00:25:28;98565.56;;;18.40;77.36
9822;BME280;4950;46.042;14.472;2023-09-08T00:27:54;98576.47;;;18.44;77.37
9822;BME280;4950;46.042;14.472;2023-09-08T00:30:21;98568.97;;;18.41;77.23
9822;BME280;4950;46.042;14.472;2023-09-08T00:32:49;98570.81;;;18.33;77.38
9822;BME280;4950;46.042;14.472;2023-09-08T00:35:16;98572.25;;;18.36;77.37
9822;BME280;4950;46.042;14.472;2023-09-08T00:37:43;98563.91;;;18.46;76.64
9822;BME280;4950;46.042;14.472;2023-09-08T00:40:10;98566.13;;;18.49;76.61
9822;BME280;4950;46.042;14.472;2023-09-08T00:42:36;98567.34;;;18.46;76.57
9822;BME280;4950;46.042;14.472;2023-09-08T00:45:03;98566.38;;;18.34;77.10
9822;BME280;4950;46.042;14.472;2023-09-08T00:47:30;98560.91;;;18.35;77.14
9822;BME280;4950;46.042;14.472;2023-09-08T00:49:58;98558.88;;;18.38;77.01
9822;BME280;4950;46.042;14.472;2023-09-08T00:52:25;98561.28;;;18.46;76.64
9822;BME280;4950;46.042;14.472;2023-09-08T00:54:56;98558.06;;;18.37;76.52
9822;BME280;4950;46.042;14.472;2023-09-08T00:57:23;98559.72;;;18.25;76.83
9822;BME280;4950;46.042;14.472;2023-09-08T00:59:50;98559.13;;;18.16;77.21
9822;BME280;4950;46.042;14.472;2023-09-08T01:02:17;98562.38;;;18.11;76.97
9822;BME280;4950;46.042;14.472;2023-09-08T01:04:44;98561.19;;;18.07;76.57
9822;BME280;4950;46.042;14.472;2023-09-08T01:07:13;98563.41;;;18.04;76.89
9822;BME280;4950;46.042;14.472;2023-09-08T01:09:42;98568.28;;;18.00;77.00
9822;BME280;4950;46.042;14.472;2023-09-08T01:12:09;98565.88;;;17.99;76.86
9822;BME280;4950;46.042;14.472;2023-09-08T01:14:35;98563.63;;;17.95;76.83
9822;BME280;4950;46.042;14.472;2023-09-08T01:17:02;98560.63;;;17.99;76.95
9822;BME280;4950;46.042;14.472;2023-09-08T01:19:29;98549.69;;;18.02;76.77
9822;BME280;4950;46.042;14.472;2023-09-08T01:25:09;98549.06;;;18.06;76.34
9822;BME280;4950;46.042;14.472;2023-09-08T01:27:42;98548.88;;;18.01;76.43
9822;BME280;4950;46.042;14.472;2023-09-08T01:30:10;98554.34;;;17.93;76.87
9822;BME280;4950;46.042;14.472;2023-09-08T01:32:39;98551.94;;;17.91;76.61
9822;BME280;4950;46.042;14.472;2023-09-08T01:35:07;98550.28;;;17.90;77.40
9822;BME280;4950;46.042;14.472;2023-09-08T01:37:34;98554.56;;;17.91;77.02
9822;BME280;4950;46.042;14.472;2023-09-08T01:40:00;98541.81;;;17.88;77.17
9822;BME280;4950;46.042;14.472;2023-09-08T01:42:28;98542.66;;;17.89;77.40
9822;BME280;4950;46.042;14.472;2023-09-08T01:44:55;98551.91;;;17.85;77.34
9822;BME280;4950;46.042;14.472;2023-09-08T01:47:22;98547.91;;;17.89;77.23
9822;BME280;4950;46.042;14.472;2023-09-08T01:49:49;98549.28;;;17.85;77.68
9822;BME280;4950;46.042;14.472;2023-09-08T01:52:15;98545.47;;;17.87;77.50
9822;BME280;4950;46.042;14.472;2023-09-08T01:54:42;98547.47;;;17.79;77.74
9822;BME280;4950;46.042;14.472;2023-09-08T01:57:09;98548.47;;;17.77;77.77
9822;BME280;4950;46.042;14.472;2023-09-08T01:59:37;98551.72;;;17.80;77.56
9822;BME280;4950;46.042;14.472;2023-09-08T02:02:04;98548.69;;;17.76;77.71
9822;BME280;4950;46.042;14.472;2023-09-08T02:04:31;98542.81;;;17.81;77.52
9822;BME280;4950;46.042;14.472;2023-09-08T02:06:58;98543.44;;;17.89;77.31
9822;BME280;4950;46.042;14.472;2023-09-08T02:09:30;98539.41;;;17.93;76.88
9822;BME280;4950;46.042;14.472;2023-09-08T02:11:57;98543.03;;;17.86;77.04
9822;BME280;4950;46.042;14.472;2023-09-08T02:14:24;98541.59;;;17.76;77.41
9822;BME280;4950;46.042;14.472;2023-09-08T02:16:52;98540.81;;;17.63;77.77
9822;BME280;4950;46.042;14.472;2023-09-08T02:19:19;98537.38;;;17.55;78.35
9822;BME280;4950;46.042;14.472;2023-09-08T02:21:46;98543.66;;;17.54;78.13
9822;BME280;4950;46.042;14.472;2023-09-08T02:24:12;98538.19;;;17.56;78.25
9822;BME280;4950;46.042;14.472;2023-09-08T02:26:39;98550.31;;;17.57;77.95
9822;BME280;4950;46.042;14.472;2023-09-08T02:29:06;98536.38;;;17.56;78.19
9822;BME280;4950;46.042;14.472;2023-09-08T02:31:34;98543.22;;;17.57;78.41
9822;BME280;4950;46.042;14.472;2023-09-08T02:34:02;98550.50;;;17.49;78.42
9822;BME280;4950;46.042;14.472;2023-09-08T02:36:29;98540.19;;;17.47;78.40
9822;BME280;4950;46.042;14.472;2023-09-08T02:38:56;98541.22;;;17.46;78.42
9822;BME280;4950;46.042;14.472;2023-09-08T02:41:24;98548.69;;;17.43;78.25
9822;BME280;4950;46.042;14.472;2023-09-08T02:43:50;98544.66;;;17.33;78.64
9822;BME280;4950;46.042;14.472;2023-09-08T02:46:17;98538.00;;;17.31;79.01
9822;BME280;4950;46.042;14.472;2023-09-08T02:48:44;98539.59;;;17.39;79.06
9822;BME280;4950;46.042;14.472;2023-09-08T02:51:12;98534.34;;;17.39;78.90
9822;BME280;4950;46.042;14.472;2023-09-08T02:53:39;98535.56;;;17.36;78.78
9822;BME280;4950;46.042;14.472;2023-09-08T02:56:06;98538.81;;;17.38;78.91
9822;BME280;4950;46.042;14.472;2023-09-08T02:58:34;98532.53;;;17.39;78.42
9822;BME280;4950;46.042;14.472;2023-09-08T03:01:09;98536.78;;;17.40;78.38
9822;BME280;4950;46.042;14.472;2023-09-08T03:03:37;98541.03;;;17.34;78.69
9822;BME280;4950;46.042;14.472;2023-09-08T03:06:03;98534.56;;;17.37;78.79
9822;BME280;4950;46.042;14.472;2023-09-08T03:08:31;98532.53;;;17.39;78.47
9822;BME280;4950;46.042;14.472;2023-09-08T03:10:59;98532.16;;;17.42;78.51
9822;BME280;4950;46.042;14.472;2023-09-08T03:13:26;98533.56;;;17.38;78.51
9822;BME280;4950;46.042;14.472;2023-09-08T03:15:54;98529.31;;;17.37;78.61
9822;BME280;4950;46.042;14.472;2023-09-08T03:18:21;98526.47;;;17.25;78.99
9822;BME280;4950;46.042;14.472;2023-09-08T03:20:48;98530.50;;;17.14;79.15
9822;BME280;4950;46.042;14.472;2023-09-08T03:23:15;98534.91;;;17.01;79.66
9822;BME280;4950;46.042;14.472;2023-09-08T03:25:43;98534.34;;;17.05;79.88
9822;BME280;4950;46.042;14.472;2023-09-08T03:28:10;98533.34;;;17.13;79.24
9822;BME280;4950;46.042;14.472;2023-09-08T03:30:37;98534.94;;;17.14;78.70
9822;BME280;4950;46.042;14.472;2023-09-08T03:33:03;98531.09;;;17.16;78.53
9822;BME280;4950;46.042;14.472;2023-09-08T03:35:30;98523.41;;;17.08;78.36
9822;BME280;4950;46.042;14.472;2023-09-08T03:37:57;98529.50;;;17.15;78.44
9822;BME280;4950;46.042;14.472;2023-09-08T03:40:24;98529.88;;;17.06;78.44
9822;BME280;4950;46.042;14.472;2023-09-08T03:42:52;98529.69;;;17.07;78.66
9822;BME280;4950;46.042;14.472;2023-09-08T03:45:19;98519.38;;;17.06;78.80
9822;BME280;4950;46.042;14.472;2023-09-08T03:47:46;98523.63;;;17.07;78.65
9822;BME280;4950;46.042;14.472;2023-09-08T03:50:12;98527.88;;;17.14;78.14
9822;BME280;4950;46.042;14.472;2023-09-08T03:52:39;98524.63;;;17.06;78.71
9822;BME280;4950;46.042;14.472;2023-09-08T03:55:06;98534.72;;;17.02;78.37
9822;BME280;4950;46.042;14.472;2023-09-08T03:57:33;98534.31;;;16.98;78.57
9822;BME280;4950;46.042;14.472;2023-09-08T04:00:01;98533.69;;;16.96;78.85
9822;BME280;4950;46.042;14.472;2023-09-08T04:02:29;98532.09;;;16.95;78.87
9822;BME280;4950;46.042;14.472;2023-09-08T04:04:55;98531.69;;;16.92;78.61
9822;BME280;4950;46.042;14.472;2023-09-08T04:07:22;98535.72;;;16.88;79.22
9822;BME280;4950;46.042;14.472;2023-09-08T04:09:49;98535.47;;;16.83;79.46
9822;BME280;4950;46.042;14.472;2023-09-08T04:12:15;98525.59;;;16.85;78.91
9822;BME280;4950;46.042;14.472;2023-09-08T04:14:42;98529.19;;;16.77;79.30
9822;BME280;4950;46.042;14.472;2023-09-08T04:17:11;98534.84;;;16.74;79.66
9822;BME280;4950;46.042;14.472;2023-09-08T04:19:40;98536.25;;;16.76;79.47
9822;BME280;4950;46.042;14.472;2023-09-08T04:22:07;98538.50;;;16.80;79.00
9822;BME280;4950;46.042;14.472;2023-09-08T04:24:35;98536.50;;;16.82;79.41
9822;BME280;4950;46.042;14.472;2023-09-08T04:27:02;98536.06;;;16.78;79.23
9822;BME280;4950;46.042;14.472;2023-09-08T04:29:29;98535.88;;;16.80;79.42
9822;BME280;4950;46.042;14.472;2023-09-08T04:31:55;98529.59;;;16.74;78.91
9822;BME280;4950;46.042;14.472;2023-09-08T04:34:24;98539.47;;;16.72;79.06
9822;BME280;4950;46.042;14.472;2023-09-08T04:36:50;98532.19;;;16.67;78.92
9822;BME280;4950;46.042;14.472;2023-09-08T04:39:17;98530.97;;;16.63;79.37
9822;BME280;4950;46.042;14.472;2023-09-08T04:41:44;98534.22;;;16.72;78.70
9822;BME280;4950;46.042;14.472;2023-09-08T04:44:10;98534.41;;;16.70;79.19
9822;BME280;4950;46.042;14.472;2023-09-08T04:46:37;98531.56;;;16.65;79.45
9822;BME280;4950;46.042;14.472;2023-09-08T04:49:04;98533.16;;;16.59;79.38
9822;BME280;4950;46.042;14.472;2023-09-08T04:51:32;98532.72;;;16.49;80.21
9822;BME280;4950;46.042;14.472;2023-09-08T04:53:59;98533.75;;;16.55;80.43
9822;BME280;4950;46.042;14.472;2023-09-08T04:56:26;98539.84;;;16.62;80.25
9822;BME280;4950;46.042;14.472;2023-09-08T04:58:52;98538.81;;;16.63;80.24
9822;BME280;4950;46.042;14.472;2023-09-08T05:01:20;98538.81;;;16.63;80.50
9822;BME280;4950;46.042;14.472;2023-09-08T05:03:47;98539.63;;;16.64;80.60
9822;BME280;4950;46.042;14.472;2023-09-08T05:06:13;98537.59;;;16.59;80.92
9822;BME280;4950;46.042;14.472;2023-09-08T05:08:42;98546.88;;;16.62;81.01
9822;BME280;4950;46.042;14.472;2023-09-08T05:11:09;98544.28;;;16.68;80.55
9822;BME280;4950;46.042;14.472;2023-09-08T05:13:36;98540.47;;;16.71;80.88
9822;BME280;4950;46.042;14.472;2023-09-08T05:16:03;98539.84;;;16.69;79.72
9822;BME280;4950;46.042;14.472;2023-09-08T05:18:36;98542.84;;;16.66;80.07
9822;BME280;4950;46.042;14.472;2023-09-08T05:21:03;98547.34;;;16.72;80.54
9822;BME280;4950;46.042;14.472;2023-09-08T05:23:30;98550.75;;;16.72;81.12
9822;BME280;4950;46.042;14.472;2023-09-08T05:25:59;98549.53;;;16.75;80.61
9822;BME280;4950;46.042;14.472;2023-09-08T05:28:25;98554.19;;;16.73;80.73
9822;BME280;4950;46.042;14.472;2023-09-08T05:30:52;98553.59;;;16.77;80.46
9822;BME280;4950;46.042;14.472;2023-09-08T05:33:19;98561.72;;;16.83;80.15
9822;BME280;4950;46.042;14.472;2023-09-08T05:35:46;98564.34;;;16.83;80.10
9822;BME280;4950;46.042;14.472;2023-09-08T05:38:13;98560.72;;;16.84;79.54
9822;BME280;4950;46.042;14.472;2023-09-08T05:40:40;98563.69;;;16.81;79.75
9822;BME280;4950;46.042;14.472;2023-09-08T05:43:08;98558.63;;;16.79;80.14
9822;BME280;4950;46.042;14.472;2023-09-08T05:45:35;98558.63;;;16.79;80.24
9822;BME280;4950;46.042;14.472;2023-09-08T05:48:02;98561.88;;;16.81;80.30
9822;BME280;4950;46.042;14.472;2023-09-08T05:50:29;98561.31;;;16.86;80.48
9822;BME280;4950;46.042;14.472;2023-09-08T05:52:56;98568.78;;;16.82;80.44
9822;BME280;4950;46.042;14.472;2023-09-08T05:55:22;98565.88;;;16.77;80.52
9822;BME280;4950;46.042;14.472;2023-09-08T05:57:49;98572.34;;;16.74;81.22
9822;BME280;4950;46.042;14.472;2023-09-08T06:00:17;98572.34;;;16.74;81.18
9822;BME280;4950;46.042;14.472;2023-09-08T06:02:44;98570.16;;;16.78;80.73
9822;BME280;4950;46.042;14.472;2023-09-08T06:05:11;98568.72;;;16.75;81.53
9822;BME280;4950;46.042;14.472;2023-09-08T06:07:38;98565.69;;;16.78;81.68
9822;BME280;4950;46.042;14.472;2023-09-08T06:10:06;98564.50;;;16.81;81.59
9822;BME280;4950;46.042;14.472;2023-09-08T06:12:32;98568.13;;;16.80;81.99
9822;BME280;4950;46.042;14.472;2023-09-08T06:14:59;98560.25;;;16.80;82.11
9822;BME280;4950;46.042;14.472;2023-09-08T06:17:27;98567.75;;;16.83;82.49
9822;BME280;4950;46.042;14.472;2023-09-08T06:19:54;98564.50;;;16.81;82.34
9822;BME280;4950;46.042;14.472;2023-09-08T06:22:21;98566.31;;;16.81;82.49
9822;BME280;4950;46.042;14.472;2023-09-08T06:24:48;98566.16;;;16.82;82.53
9822;BME280;4950;46.042;14.472;2023-09-08T06:27:15;98564.72;;;16.80;82.73
9822;BME280;4950;46.042;14.472;2023-09-08T06:29:42;98566.50;;;16.79;82.88
9822;BME280;4950;46.042;14.472;2023-09-08T06:32:10;98565.97;;;16.84;82.92
9822;BME280;4950;46.042;14.472;2023-09-08T06:34:38;98562.78;;;17.02;82.87
9822;BME280;4950;46.042;14.472;2023-09-08T06:37:05;98566.81;;;16.97;82.63
9822;BME280;4950;46.042;14.472;2023-09-08T06:39:31;98559.13;;;16.89;83.03
9822;BME280;4950;46.042;14.472;2023-09-08T06:41:58;98562.72;;;16.88;83.29
9822;BME280;4950;46.042;14.472;2023-09-08T06:44:25;98556.50;;;16.89;84.38
9822;BME280;4950;46.042;14.472;2023-09-08T06:46:52;98561.94;;;16.94;84.16
9822;BME280;4950;46.042;14.472;2023-09-08T06:49:18;98567.22;;;17.01;83.59
9822;BME280;4950;46.042;14.472;2023-09-08T06:51:47;98567.59;;;17.05;83.24
9822;BME280;4950;46.042;14.472;2023-09-08T06:54:14;98565.22;;;17.10;83.88
9822;BME280;4950;46.042;14.472;2023-09-08T06:56:41;98560.97;;;17.09;84.03
9822;BME280;4950;46.042;14.472;2023-09-08T06:59:07;98557.75;;;17.13;83.99
9822;BME280;4950;46.042;14.472;2023-09-08T07:01:34;98562.59;;;17.16;84.33
9822;BME280;4950;46.042;14.472;2023-09-08T07:04:01;98558.16;;;17.17;83.63
9822;BME280;4950;46.042;14.472;2023-09-08T07:06:28;98560.38;;;17.20;84.24
9822;BME280;4950;46.042;14.472;2023-09-08T07:08:56;98563.63;;;17.29;84.09
9822;BME280;4950;46.042;14.472;2023-09-08T07:11:23;98561.00;;;17.35;83.98
9822;BME280;4950;46.042;14.472;2023-09-08T07:13:49;98560.81;;;17.37;83.51
9822;BME280;4950;46.042;14.472;2023-09-08T07:16:16;98570.69;;;17.55;82.80
9822;BME280;4950;46.042;14.472;2023-09-08T07:18:43;98558.38;;;17.49;82.55
9822;BME280;4950;46.042;14.472;2023-09-08T07:21:10;98569.28;;;17.46;82.95
9822;BME280;4950;46.042;14.472;2023-09-08T07:23:36;98562.84;;;17.48;82.68
9822;BME280;4950;46.042;14.472;2023-09-08T07:26:05;98563.03;;;17.60;82.82
9822;BME280;4950;46.042;14.472;2023-09-08T07:28:32;98561.63;;;17.64;82.25
9822;BME280;4950;46.042;14.472;2023-09-08T07:31:02;98563.81;;;17.67;82.30
9822;BME280;4950;46.042;14.472;2023-09-08T07:33:29;98561.00;;;17.69;81.80
9822;BME280;4950;46.042;14.472;2023-09-08T07:35:56;98561.19;;;17.81;81.96
9822;BME280;4950;46.042;14.472;2023-09-08T07:38:24;98561.63;;;17.91;81.92
9822;BME280;4950;46.042;14.472;2023-09-08T07:40:50;98559.97;;;17.96;81.66
9822;BME280;4950;46.042;14.472;2023-09-08T07:43:18;98564.22;;;18.11;81.48
9822;BME280;4950;46.042;14.472;2023-09-08T07:45:45;98559.72;;;18.25;80.40
9822;BME280;4950;46.042;14.472;2023-09-08T07:48:12;98563.56;;;18.29;80.19
9822;BME280;4950;46.042;14.472;2023-09-08T07:50:39;98567.38;;;18.33;79.79
9822;BME280;4950;46.042;14.472;2023-09-08T07:53:06;98563.13;;;18.39;79.56
9822;BME280;4950;46.042;14.472;2023-09-08T07:55:33;98560.47;;;18.45;79.46
9822;BME280;4950;46.042;14.472;2023-09-08T07:58:01;98557.78;;;18.59;79.13
9822;BME280;4950;46.042;14.472;2023-09-08T08:00:30;98552.88;;;18.69;79.02
9822;BME280;4950;46.042;14.472;2023-09-08T08:02:57;98550.63;;;18.79;78.77
9822;BME280;4950;46.042;14.472;2023-09-08T08:05:24;98559.47;;;18.91;77.96
9822;BME280;4950;46.042;14.472;2023-09-08T08:07:51;98561.44;;;19.03;77.11
9822;BME280;4950;46.042;14.472;2023-09-08T08:10:18;98553.50;;;19.09;77.02
9822;BME280;4950;46.042;14.472;2023-09-08T08:12:45;98553.00;;;19.26;75.97
9822;BME280;4950;46.042;14.472;2023-09-08T08:15:12;98550.41;;;19.44;75.19
9822;BME280;4950;46.042;14.472;2023-09-08T08:17:40;98546.59;;;19.65;73.35
9822;BME280;4950;46.042;14.472;2023-09-08T08:20:10;98546.53;;;19.79;73.25
9822;BME280;4950;46.042;14.472;2023-09-08T08:22:42;98544.19;;;19.89;73.27
9822;BME280;4950;46.042;14.472;2023-09-08T08:25:09;98537.16;;;20.01;73.32
9822;BME280;4950;46.042;14.472;2023-09-08T08:27:36;98540.72;;;20.14;72.66
9822;BME280;4950;46.042;14.472;2023-09-08T08:30:03;98542.31;;;20.33;71.35
9822;BME280;4950;46.042;14.472;2023-09-08T08:32:30;98538.63;;;20.52;70.87
9822;BME280;4950;46.042;14.472;2023-09-08T08:34:58;98532.00;;;20.80;68.24
9822;BME280;4950;46.042;14.472;2023-09-08T08:37:25;98536.28;;;20.93;68.66
9822;BME280;4950;46.042;14.472;2023-09-08T08:39:52;98532.28;;;21.02;68.22
9822;BME280;4950;46.042;14.472;2023-09-08T08:42:19;98529.31;;;21.10;66.73
9822;BME280;4950;46.042;14.472;2023-09-08T08:44:47;98529.69;;;21.14;66.68
9822;BME280;4950;46.042;14.472;2023-09-08T08:47:15;98533.41;;;21.25;67.27
9822;BME280;4950;46.042;14.472;2023-09-08T08:49:44;98529.38;;;21.34;67.11
9822;BME280;4950;46.042;14.472;2023-09-08T08:52:14;98531.69;;;21.42;65.86
9822;BME280;4950;46.042;14.472;2023-09-08T08:54:43;98529.91;;;21.55;65.63
9822;BME280;4950;46.042;14.472;2023-09-08T08:57:12;98524.47;;;21.61;64.67
9822;BME280;4950;46.042;14.472;2023-09-08T08:59:39;98522.41;;;21.75;63.17
9822;BME280;4950;46.042;14.472;2023-09-08T09:02:07;98519.44;;;21.95;63.34
9822;BME280;4950;46.042;14.472;2023-09-08T09:04:36;98519.97;;;22.09;63.07
9822;BME280;4950;46.042;14.472;2023-09-08T09:07:03;98520.41;;;22.30;62.61
9822;BME280;4950;46.042;14.472;2023-09-08T09:09:33;98522.75;;;22.55;60.72
9822;BME280;4950;46.042;14.472;2023-09-08T09:12:00;98517.75;;;22.70;58.95
9822;BME280;4950;46.042;14.472;2023-09-08T09:14:28;98520.09;;;22.83;59.89
9822;BME280;4950;46.042;14.472;2023-09-08T09:16:56;98519.38;;;22.88;58.99
9822;BME280;4950;46.042;14.472;2023-09-08T09:19:23;98517.97;;;22.97;58.75
9822;BME280;4950;46.042;14.472;2023-09-08T09:21:53;98518.88;;;23.03;58.90
9822;BME280;4950;46.042;14.472;2023-09-08T09:24:29;98510.53;;;23.11;59.02
9822;BME280;4950;46.042;14.472;2023-09-08T09:26:57;98517.66;;;23.27;58.05
9822;BME280;4950;46.042;14.472;2023-09-08T09:29:24;98498.47;;;23.37;58.73
9822;BME280;4950;46.042;14.472;2023-09-08T09:31:51;98504.34;;;23.56;58.07
9822;BME280;4950;46.042;14.472;2023-09-08T09:34:19;98509.94;;;23.77;55.85
9822;BME280;4950;46.042;14.472;2023-09-08T09:36:47;98499.81;;;23.91;56.74
9822;BME280;4950;46.042;14.472;2023-09-08T09:39:16;98495.41;;;24.01;56.73
9822;BME280;4950;46.042;14.472;2023-09-08T09:41:44;98497.63;;;24.10;56.80
9822;BME280;4950;46.042;14.472;2023-09-08T09:44:12;98497.34;;;24.06;56.19
9822;BME280;4950;46.042;14.472;2023-09-08T09:46:43;98496.84;;;24.09;56.30
9822;BME280;4950;46.042;14.472;2023-09-08T09:49:10;98496.22;;;24.24;56.38
9822;BME280;4950;46.042;14.472;2023-09-08T09:51:40;98490.97;;;24.29;55.66
9822;BME280;4950;46.042;14.472;2023-09-08T09:54:07;98496.97;;;24.41;56.23
9822;BME280;4950;46.042;14.472;2023-09-08T09:56:35;98498.81;;;24.63;55.75
9822;BME280;4950;46.042;14.472;2023-09-08T09:59:03;98487.78;;;24.76;55.98
9822;BME280;4950;46.042;14.472;2023-09-08T10:01:32;98478.09;;;24.92;55.39
9822;BME280;4950;46.042;14.472;2023-09-08T10:03:59;98484.16;;;25.20;52.96
9822;BME280;4950;46.042;14.472;2023-09-08T10:06:27;98484.22;;;25.25;53.42
9822;BME280;4950;46.042;14.472;2023-09-08T10:08:55;98486.03;;;25.19;52.62
9822;BME280;4950;46.042;14.472;2023-09-08T10:11:23;98471.63;;;25.15;52.56
9822;BME280;4950;46.042;14.472;2023-09-08T10:13:53;98477.63;;;25.33;54.12
9822;BME280;4950;46.042;14.472;2023-09-08T10:16:26;98475.06;;;25.48;55.15
9822;BME280;4950;46.042;14.472;2023-09-08T10:18:58;98471.25;;;25.76;52.79
9822;BME280;4950;46.042;14.472;2023-09-08T10:21:26;98468.44;;;25.98;52.60
9822;BME280;4950;46.042;14.472;2023-09-08T10:23:59;98459.72;;;26.13;51.49
9822;BME280;4950;46.042;14.472;2023-09-08T10:26:27;98466.94;;;26.28;51.95
9822;BME280;4950;46.042;14.472;2023-09-08T10:28:57;98467.00;;;26.49;50.57
9822;BME280;4950;46.042;14.472;2023-09-08T10:31:25;98456.66;;;26.63;50.60
9822;BME280;4950;46.042;14.472;2023-09-08T10:33:54;98454.53;;;26.85;49.51
9822;BME280;4950;46.042;14.472;2023-09-08T10:36:22;98458.03;;;27.01;49.88
9822;BME280;4950;46.042;14.472;2023-09-08T10:38:50;98459.34;;;27.09;48.94
9822;BME280;4950;46.042;14.472;2023-09-08T10:41:27;98453.44;;;27.22;49.29
9822;BME280;4950;46.042;14.472;2023-09-08T10:44:00;98450.81;;;27.27;49.30
9822;BME280;4950;46.042;14.472;2023-09-08T10:46:29;98449.19;;;27.36;46.34
9822;BME280;4950;46.042;14.472;2023-09-08T10:49:03;98450.50;;;27.49;46.06
9822;BME280;4950;46.042;14.472;2023-09-08T10:51:31;98452.03;;;27.76;45.80
9822;BME280;4950;46.042;14.472;2023-09-08T10:53:58;98455.47;;;27.82;44.58
9822;BME280;4950;46.042;14.472;2023-09-08T10:56:28;98445.59;;;27.77;44.81
9822;BME280;4950;46.042;14.472;2023-09-08T10:58:55;98438.16;;;27.69;44.61
9822;BME280;4950;46.042;14.472;2023-09-08T11:01:22;98437.59;;;27.77;44.51
9822;BME280;4950;46.042;14.472;2023-09-08T11:03:52;98448.75;;;28.00;47.35
9822;BME280;4950;46.042;14.472;2023-09-08T11:06:22;98443.16;;;28.01;46.01
9822;BME280;4950;46.042;14.472;2023-09-08T11:08:50;98449.31;;;27.91;45.56
9822;BME280;4950;46.042;14.472;2023-09-08T11:11:20;98450.69;;;27.89;44.99
9822;BME280;4950;46.042;14.472;2023-09-08T11:13:47;98440.81;;;27.79;44.67
9822;BME280;4950;46.042;14.472;2023-09-08T11:16:14;98443.97;;;27.86;46.91
9822;BME280;4950;46.042;14.472;2023-09-08T11:18:41;98440.75;;;28.00;46.18
9822;BME280;4950;46.042;14.472;2023-09-08T11:21:09;98444.13;;;28.21;45.86
9822;BME280;4950;46.042;14.472;2023-09-08T11:23:38;98441.59;;;28.40;44.87
9822;BME280;4950;46.042;14.472;2023-09-08T11:26:05;98436.69;;;28.57;43.69
9822;BME280;4950;46.042;14.472;2023-09-08T11:28:34;98438.22;;;28.68;44.14
9822;BME280;4950;46.042;14.472;2023-09-08T11:31:01;98439.84;;;28.64;43.32
9822;BME280;4950;46.042;14.472;2023-09-08T11:33:34;98432.19;;;28.52;43.77
9822;BME280;4950;46.042;14.472;2023-09-08T11:36:11;98428.16;;;28.55;43.52
9822;BME280;4950;46.042;14.472;2023-09-08T11:38:42;98428.66;;;28.62;42.70
9822;BME280;4950;46.042;14.472;2023-09-08T11:41:09;98425.97;;;28.62;42.25
9822;BME280;4950;46.042;14.472;2023-09-08T11:43:37;98426.47;;;28.69;41.77
9822;BME280;4950;46.042;14.472;2023-09-08T11:46:04;98419.50;;;28.68;41.78
9822;BME280;4950;46.042;14.472;2023-09-08T11:48:31;98427.78;;;28.67;42.70
9822;BME280;4950;46.042;14.472;2023-09-08T11:50:58;98416.81;;;28.73;43.91
9822;BME280;4950;46.042;14.472;2023-09-08T11:53:28;98414.13;;;28.73;44.04
9822;BME280;4950;46.042;14.472;2023-09-08T11:55:58;98412.84;;;28.66;42.28
9822;BME280;4950;46.042;14.472;2023-09-08T11:58:25;98407.78;;;28.64;41.78
9822;BME280;4950;46.042;14.472;2023-09-08T12:00:52;98406.25;;;28.53;41.97
9822;BME280;4950;46.042;14.472;2023-09-08T12:03:19;98401.72;;;28.48;41.00
9822;BME280;4950;46.042;14.472;2023-09-08T12:05:51;98399.06;;;28.48;40.97
9822;BME280;4950;46.042;14.472;2023-09-08T12:08:18;98389.66;;;28.61;40.91
9822;BME280;4950;46.042;14.472;2023-09-08T12:10:45;98389.66;;;28.90;41.18
9822;BME280;4950;46.042;14.472;2023-09-08T12:13:13;98387.22;;;29.23;38.54
9822;BME280;4950;46.042;14.472;2023-09-08T12:15:46;98397.13;;;29.47;38.28
9822;BME280;4950;46.042;14.472;2023-09-08T12:18:14;98396.59;;;29.69;37.55
9822;BME280;4950;46.042;14.472;2023-09-08T12:20:41;98390.06;;;29.80;36.94
9822;BME280;4950;46.042;14.472;2023-09-08T12:23:16;98386.66;;;29.75;37.65
9822;BME280;4950;46.042;14.472;2023-09-08T12:25:47;98391.25;;;29.69;37.81
9822;BME280;4950;46.042;14.472;2023-09-08T12:28:17;98377.81;;;29.74;37.79
9822;BME280;4950;46.042;14.472;2023-09-08T12:30:44;98386.59;;;29.99;37.34
9822;BME280;4950;46.042;14.472;2023-09-08T12:33:11;98374.16;;;30.08;35.91
9822;BME280;4950;46.042;14.472;2023-09-08T12:35:42;98376.84;;;30.08;36.51
9822;BME280;4950;46.042;14.472;2023-09-08T12:38:09;98373.00;;;30.14;37.32
9822;BME280;4950;46.042;14.472;2023-09-08T12:40:37;98369.88;;;30.26;37.16
9822;BME280;4950;46.042;14.472;2023-09-08T12:43:04;98371.09;;;30.53;36.28
9822;BME280;4950;46.042;14.472;2023-09-08T12:45:33;98368.06;;;30.73;36.58
9822;BME280;4950;46.042;14.472;2023-09-08T12:48:00;98365.66;;;30.90;36.74
9822;BME280;4950;46.042;14.472;2023-09-08T12:50:28;98366.88;;;31.12;36.08
9822;BME280;4950;46.042;14.472;2023-09-08T12:52:55;98367.38;;;31.28;35.46
9822;BME280;4950;46.042;14.472;2023-09-08T12:55:22;98363.09;;;31.41;34.27
9822;BME280;4950;46.042;14.472;2023-09-08T12:57:49;98366.59;;;31.55;35.10
9822;BME280;4950;46.042;14.472;2023-09-08T13:00:19;98361.97;;;31.69;34.53
9822;BME280;4950;46.042;14.472;2023-09-08T13:02:49;98369.22;;;31.83;33.35
9822;BME280;4950;46.042;14.472;2023-09-08T13:05:16;98372.50;;;31.94;32.98
9822;BME280;4950;46.042;14.472;2023-09-08T13:07:42;98359.88;;;31.80;34.00
9822;BME280;4950;46.042;14.472;2023-09-08T13:10:09;98356.63;;;31.56;34.05
9822;BME280;4950;46.042;14.472;2023-09-08T13:12:36;98355.34;;;31.53;34.92
9822;BME280;4950;46.042;14.472;2023-09-08T13:15:03;98354.44;;;31.58;35.82